Charter Quote
Worldwide +1-877-727-2538 Call
Select Language Lang
SAFETY RELIABILITY EXPERIENCE

Private Jet Charter Services - Yancheng Airport (ZSYN)

Paramount Business Jets offers private jet charter flights and luxury airliner charters to and from Yancheng Airport.

AIRPORT INFORMATION
ICAOZSYN
LOCATIONYancheng, China
FACILITY TYPEAIRPORT

At Paramount Business Jets you can hire chartered private jets to and from Yancheng Airport with as little as 4 hours of notice. All flights booked via Paramount Business Jets are operated by certified direct air carriers that meet and exceed the FAA part 135 and 121 protocol or a foreign equivalent safety authority. Furthermore, Paramount Business Jets subscribes to ARGUS for their third party safety checks of operators, aircraft, and crews prior each and every flight to and from Yancheng Airport and worldwide.

  • Quote a trip using Yancheng Airport or call us 24/7 - 365 days a year at +1-877-727-2538.
Questions? Call +1-877-727-2538

METAR Weather Data at Yancheng Airport, ZSYN

STATIONZSYN
OBSERVEDFri May 20, 23:00 UTC
NOWMon Oct 21, 20:02 UTC
AGE29973:02 hr ago
WINDENE at 9 mph
VISIBILITY16 miles
CLOUDSscattered clouds
TEMP64°F (18°C)
DEWPT57°F (14°C)
HUMIDITY78%
BAROMETER1015 hPa (29.97 in Hg)
METARZSYN 202300Z 06004MPS 9999 SCT040 18/14 Q1015 NOSIG

Call us on +1-877-727-2538 (24 Hours) to Hire a Private Jet or Get a Quick Quote.

Find Airports Near any Location

Processing
...